sensor_id;sensor_type;location;lat;lon;timestamp;P1;durP1;ratioP1;P2;durP2;ratioP2
59830;SDS011;45711;50.108;13.712;2023-05-10T00:01:23;6.55;;;3.75;;
59830;SDS011;45711;50.108;13.712;2023-05-10T00:03:49;6.03;;;3.08;;
59830;SDS011;45711;50.108;13.712;2023-05-10T00:06:14;8.13;;;3.65;;
59830;SDS011;45711;50.108;13.712;2023-05-10T00:08:41;7.88;;;3.40;;
59830;SDS011;45711;50.108;13.712;2023-05-10T00:11:07;6.90;;;3.63;;
59830;SDS011;45711;50.108;13.712;2023-05-10T00:13:32;5.93;;;3.30;;
59830;SDS011;45711;50.108;13.712;2023-05-10T00:15:58;10.85;;;3.40;;
59830;SDS011;45711;50.108;13.712;2023-05-10T00:18:23;15.07;;;3.67;;
59830;SDS011;45711;50.108;13.712;2023-05-10T00:20:49;5.13;;;2.85;;
59830;SDS011;45711;50.108;13.712;2023-05-10T00:23:15;15.20;;;3.67;;
59830;SDS011;45711;50.108;13.712;2023-05-10T00:25:42;8.60;;;3.70;;
59830;SDS011;45711;50.108;13.712;2023-05-10T00:28:07;8.90;;;3.38;;
59830;SDS011;45711;50.108;13.712;2023-05-10T00:30:33;13.20;;;3.80;;
59830;SDS011;45711;50.108;13.712;2023-05-10T00:32:58;11.02;;;4.00;;
59830;SDS011;45711;50.108;13.712;2023-05-10T00:35:24;11.27;;;3.83;;
59830;SDS011;45711;50.108;13.712;2023-05-10T00:37:49;7.90;;;3.67;;
59830;SDS011;45711;50.108;13.712;2023-05-10T00:40:15;7.38;;;3.90;;
59830;SDS011;45711;50.108;13.712;2023-05-10T00:42:42;13.98;;;4.25;;
59830;SDS011;45711;50.108;13.712;2023-05-10T00:45:08;8.85;;;3.90;;
59830;SDS011;45711;50.108;13.712;2023-05-10T00:47:33;6.75;;;3.80;;
59830;SDS011;45711;50.108;13.712;2023-05-10T00:49:59;6.30;;;3.90;;
59830;SDS011;45711;50.108;13.712;2023-05-10T00:52:25;11.63;;;4.55;;
59830;SDS011;45711;50.108;13.712;2023-05-10T00:54:51;8.90;;;3.78;;
59830;SDS011;45711;50.108;13.712;2023-05-10T00:57:17;8.85;;;3.80;;
59830;SDS011;45711;50.108;13.712;2023-05-10T00:59:44;6.57;;;4.00;;
59830;SDS011;45711;50.108;13.712;2023-05-10T01:02:10;7.72;;;3.67;;
59830;SDS011;45711;50.108;13.712;2023-05-10T01:04:38;6.47;;;4.00;;
59830;SDS011;45711;50.108;13.712;2023-05-10T01:07:04;5.80;;;3.90;;
59830;SDS011;45711;50.108;13.712;2023-05-10T01:09:30;9.02;;;4.22;;
59830;SDS011;45711;50.108;13.712;2023-05-10T01:11:56;7.13;;;3.88;;
59830;SDS011;45711;50.108;13.712;2023-05-10T01:14:22;9.75;;;4.15;;
59830;SDS011;45711;50.108;13.712;2023-05-10T01:16:49;9.27;;;4.97;;
59830;SDS011;45711;50.108;13.712;2023-05-10T01:19:17;7.65;;;4.97;;
59830;SDS011;45711;50.108;13.712;2023-05-10T01:21:48;10.13;;;5.57;;
59830;SDS011;45711;50.108;13.712;2023-05-10T01:24:26;10.97;;;6.07;;
59830;SDS011;45711;50.108;13.712;2023-05-10T01:27:13;13.27;;;6.20;;
59830;SDS011;45711;50.108;13.712;2023-05-10T01:29:59;15.82;;;5.80;;
59830;SDS011;45711;50.108;13.712;2023-05-10T01:32:38;11.02;;;6.10;;
59830;SDS011;45711;50.108;13.712;2023-05-10T01:35:16;9.65;;;5.28;;
59830;SDS011;45711;50.108;13.712;2023-05-10T01:37:46;8.57;;;5.40;;
59830;SDS011;45711;50.108;13.712;2023-05-10T01:40:19;8.77;;;5.03;;
59830;SDS011;45711;50.108;13.712;2023-05-10T01:42:49;10.90;;;4.70;;
59830;SDS011;45711;50.108;13.712;2023-05-10T01:45:23;13.07;;;4.80;;
59830;SDS011;45711;50.108;13.712;2023-05-10T01:47:57;11.65;;;4.53;;
59830;SDS011;45711;50.108;13.712;2023-05-10T01:50:28;9.10;;;4.55;;
59830;SDS011;45711;50.108;13.712;2023-05-10T01:52:56;29.00;;;5.55;;
59830;SDS011;45711;50.108;13.712;2023-05-10T01:55:25;20.75;;;6.85;;
59830;SDS011;45711;50.108;13.712;2023-05-10T01:57:56;11.85;;;6.10;;
59830;SDS011;45711;50.108;13.712;2023-05-10T02:00:28;10.90;;;5.82;;
59830;SDS011;45711;50.108;13.712;2023-05-10T02:02:57;12.38;;;5.38;;
59830;SDS011;45711;50.108;13.712;2023-05-10T02:05:25;9.80;;;5.93;;
59830;SDS011;45711;50.108;13.712;2023-05-10T02:07:52;15.70;;;4.55;;
59830;SDS011;45711;50.108;13.712;2023-05-10T02:10:19;9.98;;;5.13;;
59830;SDS011;45711;50.108;13.712;2023-05-10T02:12:45;8.90;;;5.50;;
59830;SDS011;45711;50.108;13.712;2023-05-10T02:15:14;11.52;;;5.40;;
59830;SDS011;45711;50.108;13.712;2023-05-10T02:17:43;11.55;;;5.68;;
59830;SDS011;45711;50.108;13.712;2023-05-10T02:20:13;12.15;;;5.28;;
59830;SDS011;45711;50.108;13.712;2023-05-10T02:22:40;9.38;;;5.30;;
59830;SDS011;45711;50.108;13.712;2023-05-10T02:25:08;7.90;;;5.18;;
59830;SDS011;45711;50.108;13.712;2023-05-10T02:27:34;18.75;;;5.25;;
59830;SDS011;45711;50.108;13.712;2023-05-10T02:30:02;8.18;;;4.75;;
59830;SDS011;45711;50.108;13.712;2023-05-10T02:32:28;10.23;;;4.78;;
59830;SDS011;45711;50.108;13.712;2023-05-10T02:34:54;10.82;;;5.05;;
59830;SDS011;45711;50.108;13.712;2023-05-10T02:37:22;8.70;;;5.00;;
59830;SDS011;45711;50.108;13.712;2023-05-10T02:39:50;9.80;;;5.43;;
59830;SDS011;45711;50.108;13.712;2023-05-10T02:42:19;9.60;;;5.45;;
59830;SDS011;45711;50.108;13.712;2023-05-10T02:44:50;8.93;;;5.15;;
59830;SDS011;45711;50.108;13.712;2023-05-10T02:47:19;11.18;;;5.00;;
59830;SDS011;45711;50.108;13.712;2023-05-10T02:49:44;10.65;;;4.97;;
59830;SDS011;45711;50.108;13.712;2023-05-10T02:52:10;7.75;;;4.82;;
59830;SDS011;45711;50.108;13.712;2023-05-10T02:54:50;8.25;;;5.00;;
59830;SDS011;45711;50.108;13.712;2023-05-10T02:57:21;10.45;;;5.07;;
59830;SDS011;45711;50.108;13.712;2023-05-10T02:59:58;11.68;;;5.15;;
59830;SDS011;45711;50.108;13.712;2023-05-10T03:02:25;8.60;;;4.85;;
59830;SDS011;45711;50.108;13.712;2023-05-10T03:04:51;9.60;;;4.80;;
59830;SDS011;45711;50.108;13.712;2023-05-10T03:07:16;10.63;;;5.10;;
59830;SDS011;45711;50.108;13.712;2023-05-10T03:09:44;10.65;;;5.63;;
59830;SDS011;45711;50.108;13.712;2023-05-10T03:12:14;8.73;;;5.43;;
59830;SDS011;45711;50.108;13.712;2023-05-10T03:14:53;6.97;;;4.55;;
59830;SDS011;45711;50.108;13.712;2023-05-10T03:17:23;10.05;;;4.22;;
59830;SDS011;45711;50.108;13.712;2023-05-10T03:19:55;14.20;;;4.65;;
59830;SDS011;45711;50.108;13.712;2023-05-10T03:22:23;9.15;;;5.18;;
59830;SDS011;45711;50.108;13.712;2023-05-10T03:24:52;9.52;;;4.88;;
59830;SDS011;45711;50.108;13.712;2023-05-10T03:27:25;7.63;;;4.55;;
59830;SDS011;45711;50.108;13.712;2023-05-10T03:29:52;9.60;;;4.60;;
59830;SDS011;45711;50.108;13.712;2023-05-10T03:32:18;9.95;;;4.97;;
59830;SDS011;45711;50.108;13.712;2023-05-10T03:34:47;8.25;;;4.43;;
59830;SDS011;45711;50.108;13.712;2023-05-10T03:37:12;8.60;;;4.40;;
59830;SDS011;45711;50.108;13.712;2023-05-10T03:39:38;7.85;;;4.43;;
59830;SDS011;45711;50.108;13.712;2023-05-10T03:42:04;8.40;;;4.63;;
59830;SDS011;45711;50.108;13.712;2023-05-10T03:44:31;6.82;;;4.82;;
59830;SDS011;45711;50.108;13.712;2023-05-10T03:46:58;9.85;;;4.70;;
59830;SDS011;45711;50.108;13.712;2023-05-10T03:49:23;12.85;;;5.47;;
59830;SDS011;45711;50.108;13.712;2023-05-10T03:51:49;8.65;;;4.82;;
59830;SDS011;45711;50.108;13.712;2023-05-10T03:54:15;9.50;;;4.45;;
59830;SDS011;45711;50.108;13.712;2023-05-10T03:56:40;9.85;;;5.25;;
59830;SDS011;45711;50.108;13.712;2023-05-10T03:59:06;13.68;;;4.78;;
59830;SDS011;45711;50.108;13.712;2023-05-10T04:01:35;12.65;;;5.10;;
59830;SDS011;45711;50.108;13.712;2023-05-10T04:04:01;9.15;;;4.43;;
59830;SDS011;45711;50.108;13.712;2023-05-10T04:06:26;5.68;;;4.45;;
59830;SDS011;45711;50.108;13.712;2023-05-10T04:08:52;18.00;;;5.22;;
59830;SDS011;45711;50.108;13.712;2023-05-10T04:11:17;9.90;;;4.75;;
59830;SDS011;45711;50.108;13.712;2023-05-10T04:13:43;10.18;;;4.95;;
59830;SDS011;45711;50.108;13.712;2023-05-10T04:16:09;8.05;;;4.60;;
59830;SDS011;45711;50.108;13.712;2023-05-10T04:18:36;10.07;;;4.50;;
59830;SDS011;45711;50.108;13.712;2023-05-10T04:21:01;21.95;;;5.22;;
59830;SDS011;45711;50.108;13.712;2023-05-10T04:23:27;11.18;;;4.57;;
59830;SDS011;45711;50.108;13.712;2023-05-10T04:25:58;17.05;;;5.13;;
59830;SDS011;45711;50.108;13.712;2023-05-10T04:28:24;17.73;;;8.18;;
59830;SDS011;45711;50.108;13.712;2023-05-10T04:30:50;49.10;;;20.73;;
59830;SDS011;45711;50.108;13.712;2023-05-10T04:33:15;45.40;;;17.70;;
59830;SDS011;45711;50.108;13.712;2023-05-10T04:35:42;15.43;;;7.80;;
59830;SDS011;45711;50.108;13.712;2023-05-10T04:38:09;11.73;;;6.65;;
59830;SDS011;45711;50.108;13.712;2023-05-10T04:40:35;8.30;;;5.28;;
59830;SDS011;45711;50.108;13.712;2023-05-10T04:43:00;10.55;;;5.95;;
59830;SDS011;45711;50.108;13.712;2023-05-10T04:45:26;16.92;;;7.68;;
59830;SDS011;45711;50.108;13.712;2023-05-10T04:47:52;16.17;;;8.95;;
59830;SDS011;45711;50.108;13.712;2023-05-10T04:50:17;18.85;;;8.98;;
59830;SDS011;45711;50.108;13.712;2023-05-10T04:52:44;22.88;;;10.73;;
59830;SDS011;45711;50.108;13.712;2023-05-10T04:55:10;16.23;;;6.97;;
59830;SDS011;45711;50.108;13.712;2023-05-10T04:57:35;18.48;;;6.88;;
59830;SDS011;45711;50.108;13.712;2023-05-10T05:00:01;21.02;;;6.15;;
59830;SDS011;45711;50.108;13.712;2023-05-10T05:02:27;29.65;;;6.55;;
59830;SDS011;45711;50.108;13.712;2023-05-10T05:04:52;13.73;;;5.93;;
59830;SDS011;45711;50.108;13.712;2023-05-10T05:07:18;9.50;;;5.22;;
59830;SDS011;45711;50.108;13.712;2023-05-10T05:09:45;18.08;;;6.18;;
59830;SDS011;45711;50.108;13.712;2023-05-10T05:12:10;14.45;;;6.03;;
59830;SDS011;45711;50.108;13.712;2023-05-10T05:14:39;65.80;;;8.32;;
59830;SDS011;45711;50.108;13.712;2023-05-10T05:17:04;51.72;;;7.15;;
59830;SDS011;45711;50.108;13.712;2023-05-10T05:19:30;45.08;;;6.53;;
59830;SDS011;45711;50.108;13.712;2023-05-10T05:21:56;44.92;;;7.25;;
59830;SDS011;45711;50.108;13.712;2023-05-10T05:24:21;35.35;;;7.18;;
59830;SDS011;45711;50.108;13.712;2023-05-10T05:26:49;34.67;;;6.82;;
59830;SDS011;45711;50.108;13.712;2023-05-10T05:29:15;14.30;;;6.00;;
59830;SDS011;45711;50.108;13.712;2023-05-10T05:31:40;20.30;;;5.90;;
59830;SDS011;45711;50.108;13.712;2023-05-10T05:34:06;16.42;;;6.60;;
59830;SDS011;45711;50.108;13.712;2023-05-10T05:36:31;23.00;;;6.72;;
59830;SDS011;45711;50.108;13.712;2023-05-10T05:38:57;26.67;;;9.57;;
59830;SDS011;45711;50.108;13.712;2023-05-10T05:41:23;15.10;;;7.97;;
59830;SDS011;45711;50.108;13.712;2023-05-10T05:43:51;19.73;;;6.65;;
59830;SDS011;45711;50.108;13.712;2023-05-10T05:46:16;11.90;;;6.25;;
59830;SDS011;45711;50.108;13.712;2023-05-10T05:48:42;14.05;;;5.85;;
59830;SDS011;45711;50.108;13.712;2023-05-10T05:51:07;19.98;;;6.78;;
59830;SDS011;45711;50.108;13.712;2023-05-10T05:53:33;15.00;;;6.57;;
59830;SDS011;45711;50.108;13.712;2023-05-10T05:55:58;13.70;;;7.00;;
59830;SDS011;45711;50.108;13.712;2023-05-10T05:58:24;18.10;;;8.40;;
59830;SDS011;45711;50.108;13.712;2023-05-10T06:00:51;23.27;;;10.65;;
59830;SDS011;45711;50.108;13.712;2023-05-10T06:03:17;16.48;;;9.73;;
59830;SDS011;45711;50.108;13.712;2023-05-10T06:05:43;24.10;;;10.32;;
59830;SDS011;45711;50.108;13.712;2023-05-10T06:08:09;14.90;;;8.10;;
59830;SDS011;45711;50.108;13.712;2023-05-10T06:10:35;51.88;;;8.85;;
59830;SDS011;45711;50.108;13.712;2023-05-10T06:13:00;15.10;;;5.95;;
59830;SDS011;45711;50.108;13.712;2023-05-10T06:15:27;10.60;;;4.72;;
59830;SDS011;45711;50.108;13.712;2023-05-10T06:17:54;7.10;;;4.57;;
59830;SDS011;45711;50.108;13.712;2023-05-10T06:20:20;7.85;;;4.68;;
59830;SDS011;45711;50.108;13.712;2023-05-10T06:22:46;9.98;;;5.00;;
59830;SDS011;45711;50.108;13.712;2023-05-10T06:25:11;10.38;;;4.47;;
59830;SDS011;45711;50.108;13.712;2023-05-10T06:27:37;15.77;;;5.38;;
59830;SDS011;45711;50.108;13.712;2023-05-10T06:30:03;13.82;;;5.47;;
59830;SDS011;45711;50.108;13.712;2023-05-10T06:32:30;13.52;;;4.82;;
59830;SDS011;45711;50.108;13.712;2023-05-10T06:34:57;6.32;;;3.95;;
59830;SDS011;45711;50.108;13.712;2023-05-10T06:37:22;10.10;;;4.20;;
59830;SDS011;45711;50.108;13.712;2023-05-10T06:39:48;7.68;;;3.40;;
59830;SDS011;45711;50.108;13.712;2023-05-10T06:42:13;6.20;;;3.65;;
59830;SDS011;45711;50.108;13.712;2023-05-10T06:44:39;10.73;;;3.17;;
59830;SDS011;45711;50.108;13.712;2023-05-10T06:47:05;3.95;;;2.70;;
59830;SDS011;45711;50.108;13.712;2023-05-10T06:49:30;8.00;;;3.20;;
59830;SDS011;45711;50.108;13.712;2023-05-10T06:51:57;5.93;;;3.30;;
59830;SDS011;45711;50.108;13.712;2023-05-10T06:54:23;19.48;;;4.03;;
59830;SDS011;45711;50.108;13.712;2023-05-10T06:56:48;4.65;;;2.85;;
59830;SDS011;45711;50.108;13.712;2023-05-10T06:59:14;10.13;;;3.03;;
59830;SDS011;45711;50.108;13.712;2023-05-10T07:01:41;5.13;;;2.65;;
59830;SDS011;45711;50.108;13.712;2023-05-10T07:04:07;5.78;;;2.30;;
59830;SDS011;45711;50.108;13.712;2023-05-10T07:06:32;3.75;;;2.70;;
59830;SDS011;45711;50.108;13.712;2023-05-10T07:09:00;6.07;;;2.50;;
59830;SDS011;45711;50.108;13.712;2023-05-10T07:11:25;3.15;;;2.70;;
59830;SDS011;45711;50.108;13.712;2023-05-10T07:13:51;4.85;;;2.35;;
59830;SDS011;45711;50.108;13.712;2023-05-10T07:16:17;3.38;;;2.53;;
59830;SDS011;45711;50.108;13.712;2023-05-10T07:18:43;12.25;;;3.60;;
59830;SDS011;45711;50.108;13.712;2023-05-10T07:21:08;12.93;;;3.00;;
59830;SDS011;45711;50.108;13.712;2023-05-10T07:23:34;8.77;;;2.33;;
59830;SDS011;45711;50.108;13.712;2023-05-10T07:26:01;6.78;;;2.67;;
59830;SDS011;45711;50.108;13.712;2023-05-10T07:28:27;3.70;;;2.60;;
59830;SDS011;45711;50.108;13.712;2023-05-10T07:30:53;4.97;;;2.80;;
59830;SDS011;45711;50.108;13.712;2023-05-10T07:33:18;4.93;;;3.03;;
59830;SDS011;45711;50.108;13.712;2023-05-10T07:35:44;7.53;;;2.83;;
59830;SDS011;45711;50.108;13.712;2023-05-10T07:38:10;5.22;;;2.67;;
59830;SDS011;45711;50.108;13.712;2023-05-10T07:40:36;7.93;;;2.88;;
59830;SDS011;45711;50.108;13.712;2023-05-10T07:43:03;9.65;;;3.50;;
59830;SDS011;45711;50.108;13.712;2023-05-10T07:45:29;15.63;;;3.35;;
59830;SDS011;45711;50.108;13.712;2023-05-10T07:47:55;7.00;;;2.63;;
59830;SDS011;45711;50.108;13.712;2023-05-10T07:50:20;4.03;;;2.67;;
59830;SDS011;45711;50.108;13.712;2023-05-10T07:52:46;6.07;;;2.60;;
59830;SDS011;45711;50.108;13.712;2023-05-10T07:55:11;4.68;;;2.30;;
59830;SDS011;45711;50.108;13.712;2023-05-10T07:57:37;4.32;;;2.58;;
59830;SDS011;45711;50.108;13.712;2023-05-10T08:00:06;16.15;;;2.90;;
59830;SDS011;45711;50.108;13.712;2023-05-10T08:02:32;7.53;;;3.08;;
59830;SDS011;45711;50.108;13.712;2023-05-10T08:04:58;4.90;;;3.22;;
59830;SDS011;45711;50.108;13.712;2023-05-10T08:07:26;3.85;;;2.42;;
59830;SDS011;45711;50.108;13.712;2023-05-10T08:09:51;6.85;;;2.50;;
59830;SDS011;45711;50.108;13.712;2023-05-10T08:12:17;6.10;;;2.45;;
59830;SDS011;45711;50.108;13.712;2023-05-10T08:14:42;4.22;;;2.50;;
59830;SDS011;45711;50.108;13.712;2023-05-10T08:17:09;5.22;;;2.50;;
59830;SDS011;45711;50.108;13.712;2023-05-10T08:19:35;3.58;;;2.40;;
59830;SDS011;45711;50.108;13.712;2023-05-10T08:22:00;3.55;;;2.20;;
59830;SDS011;45711;50.108;13.712;2023-05-10T08:24:26;6.22;;;2.75;;
59830;SDS011;45711;50.108;13.712;2023-05-10T08:26:52;3.50;;;2.45;;
59830;SDS011;45711;50.108;13.712;2023-05-10T08:29:17;7.20;;;2.40;;
59830;SDS011;45711;50.108;13.712;2023-05-10T08:31:43;4.95;;;2.20;;
59830;SDS011;45711;50.108;13.712;2023-05-10T08:34:10;4.43;;;2.80;;
59830;SDS011;45711;50.108;13.712;2023-05-10T08:36:35;4.95;;;2.53;;
59830;SDS011;45711;50.108;13.712;2023-05-10T08:39:01;5.47;;;2.53;;
59830;SDS011;45711;50.108;13.712;2023-05-10T08:41:27;7.68;;;2.33;;
59830;SDS011;45711;50.108;13.712;2023-05-10T08:43:53;5.60;;;2.83;;
59830;SDS011;45711;50.108;13.712;2023-05-10T08:46:20;6.07;;;2.90;;
59830;SDS011;45711;50.108;13.712;2023-05-10T08:48:47;3.35;;;2.53;;
59830;SDS011;45711;50.108;13.712;2023-05-10T08:51:17;3.33;;;2.50;;
59830;SDS011;45711;50.108;13.712;2023-05-10T08:53:44;3.65;;;2.53;;
59830;SDS011;45711;50.108;13.712;2023-05-10T08:56:10;6.00;;;2.50;;
59830;SDS011;45711;50.108;13.712;2023-05-10T08:58:36;11.52;;;2.72;;
59830;SDS011;45711;50.108;13.712;2023-05-10T09:01:01;5.70;;;2.08;;
59830;SDS011;45711;50.108;13.712;2023-05-10T09:03:28;6.32;;;2.60;;
59830;SDS011;45711;50.108;13.712;2023-05-10T09:05:53;5.13;;;3.08;;
59830;SDS011;45711;50.108;13.712;2023-05-10T09:08:22;15.70;;;3.00;;
59830;SDS011;45711;50.108;13.712;2023-05-10T09:10:50;15.82;;;3.10;;
59830;SDS011;45711;50.108;13.712;2023-05-10T09:13:16;5.43;;;2.30;;
59830;SDS011;45711;50.108;13.712;2023-05-10T09:15:42;3.17;;;2.08;;
59830;SDS011;45711;50.108;13.712;2023-05-10T09:18:08;3.90;;;2.47;;
59830;SDS011;45711;50.108;13.712;2023-05-10T09:20:34;8.90;;;2.40;;
59830;SDS011;45711;50.108;13.712;2023-05-10T09:22:59;2.97;;;2.13;;
59830;SDS011;45711;50.108;13.712;2023-05-10T09:25:26;5.57;;;2.30;;
59830;SDS011;45711;50.108;13.712;2023-05-10T09:27:52;4.95;;;2.63;;
59830;SDS011;45711;50.108;13.712;2023-05-10T09:30:23;5.10;;;2.47;;
59830;SDS011;45711;50.108;13.712;2023-05-10T09:32:50;15.75;;;3.10;;
59830;SDS011;45711;50.108;13.712;2023-05-10T09:35:17;3.47;;;2.30;;
59830;SDS011;45711;50.108;13.712;2023-05-10T09:37:44;4.47;;;2.70;;
59830;SDS011;45711;50.108;13.712;2023-05-10T09:40:13;2.80;;;2.17;;
59830;SDS011;45711;50.108;13.712;2023-05-10T09:42:42;3.95;;;2.63;;
59830;SDS011;45711;50.108;13.712;2023-05-10T09:45:16;3.40;;;2.45;;
59830;SDS011;45711;50.108;13.712;2023-05-10T09:47:42;3.33;;;2.25;;
59830;SDS011;45711;50.108;13.712;2023-05-10T09:50:07;4.53;;;2.72;;
59830;SDS011;45711;50.108;13.712;2023-05-10T09:52:45;6.22;;;2.25;;
59830;SDS011;45711;50.108;13.712;2023-05-10T09:55:12;6.50;;;2.58;;
59830;SDS011;45711;50.108;13.712;2023-05-10T09:57:37;4.97;;;3.40;;
59830;SDS011;45711;50.108;13.712;2023-05-10T10:00:06;7.47;;;2.28;;
59830;SDS011;45711;50.108;13.712;2023-05-10T10:02:32;3.20;;;2.30;;
59830;SDS011;45711;50.108;13.712;2023-05-10T10:07:26;8.25;;;3.45;;
59830;SDS011;45711;50.108;13.712;2023-05-10T10:09:53;4.63;;;2.55;;
59830;SDS011;45711;50.108;13.712;2023-05-10T10:12:18;4.43;;;2.35;;
59830;SDS011;45711;50.108;13.712;2023-05-10T10:14:45;5.25;;;2.60;;
59830;SDS011;45711;50.108;13.712;2023-05-10T10:17:13;3.53;;;2.30;;
59830;SDS011;45711;50.108;13.712;2023-05-10T10:19:39;4.18;;;2.33;;
59830;SDS011;45711;50.108;13.712;2023-05-10T10:22:06;8.77;;;2.95;;
59830;SDS011;45711;50.108;13.712;2023-05-10T10:24:32;5.78;;;2.50;;
59830;SDS011;45711;50.108;13.712;2023-05-10T10:27:00;8.07;;;2.92;;
59830;SDS011;45711;50.108;13.712;2023-05-10T10:29:34;8.15;;;3.10;;
59830;SDS011;45711;50.108;13.712;2023-05-10T10:32:07;12.95;;;3.35;;
59830;SDS011;45711;50.108;13.712;2023-05-10T10:34:43;7.20;;;3.55;;
59830;SDS011;45711;50.108;13.712;2023-05-10T10:37:09;11.93;;;2.88;;
59830;SDS011;45711;50.108;13.712;2023-05-10T10:39:35;6.95;;;3.00;;
59830;SDS011;45711;50.108;13.712;2023-05-10T10:42:01;4.25;;;2.40;;
59830;SDS011;45711;50.108;13.712;2023-05-10T10:44:36;9.05;;;3.35;;
59830;SDS011;45711;50.108;13.712;2023-05-10T10:47:04;6.80;;;2.78;;
59830;SDS011;45711;50.108;13.712;2023-05-10T10:49:37;5.22;;;2.60;;
59830;SDS011;45711;50.108;13.712;2023-05-10T10:52:22;6.30;;;2.92;;
59830;SDS011;45711;50.108;13.712;2023-05-10T10:54:51;6.35;;;3.00;;
59830;SDS011;45711;50.108;13.712;2023-05-10T10:57:18;8.38;;;4.30;;
59830;SDS011;45711;50.108;13.712;2023-05-10T10:59:46;6.57;;;3.00;;
59830;SDS011;45711;50.108;13.712;2023-05-10T11:05:00;4.28;;;3.20;;
59830;SDS011;45711;50.108;13.712;2023-05-10T11:07:54;6.32;;;2.90;;
59830;SDS011;45711;50.108;13.712;2023-05-10T11:10:20;6.18;;;2.90;;
59830;SDS011;45711;50.108;13.712;2023-05-10T11:12:53;5.82;;;2.95;;
59830;SDS011;45711;50.108;13.712;2023-05-10T11:15:28;7.95;;;3.35;;
59830;SDS011;45711;50.108;13.712;2023-05-10T11:17:54;7.50;;;2.50;;
59830;SDS011;45711;50.108;13.712;2023-05-10T11:20:20;9.15;;;2.90;;
59830;SDS011;45711;50.108;13.712;2023-05-10T11:22:49;6.25;;;2.80;;
59830;SDS011;45711;50.108;13.712;2023-05-10T11:25:18;3.80;;;2.47;;
59830;SDS011;45711;50.108;13.712;2023-05-10T11:27:43;4.70;;;2.63;;
59830;SDS011;45711;50.108;13.712;2023-05-10T11:30:10;5.40;;;2.80;;
59830;SDS011;45711;50.108;13.712;2023-05-10T11:32:39;4.50;;;2.47;;
59830;SDS011;45711;50.108;13.712;2023-05-10T11:35:06;5.70;;;2.92;;
59830;SDS011;45711;50.108;13.712;2023-05-10T11:37:32;3.60;;;2.50;;
59830;SDS011;45711;50.108;13.712;2023-05-10T11:39:59;5.03;;;2.97;;
59830;SDS011;45711;50.108;13.712;2023-05-10T11:42:26;3.35;;;2.38;;
59830;SDS011;45711;50.108;13.712;2023-05-10T11:44:52;4.40;;;2.40;;
59830;SDS011;45711;50.108;13.712;2023-05-10T11:47:18;6.13;;;2.80;;
59830;SDS011;45711;50.108;13.712;2023-05-10T11:49:44;5.10;;;2.42;;
59830;SDS011;45711;50.108;13.712;2023-05-10T11:52:10;5.05;;;2.72;;
59830;SDS011;45711;50.108;13.712;2023-05-10T11:54:44;5.32;;;3.25;;
59830;SDS011;45711;50.108;13.712;2023-05-10T11:57:11;14.10;;;4.03;;
59830;SDS011;45711;50.108;13.712;2023-05-10T11:59:38;4.18;;;2.65;;
59830;SDS011;45711;50.108;13.712;2023-05-10T12:02:03;6.32;;;3.20;;
59830;SDS011;45711;50.108;13.712;2023-05-10T12:04:29;5.90;;;3.70;;
59830;SDS011;45711;50.108;13.712;2023-05-10T12:06:58;19.65;;;3.92;;
59830;SDS011;45711;50.108;13.712;2023-05-10T12:09:24;7.07;;;2.78;;
59830;SDS011;45711;50.108;13.712;2023-05-10T12:11:54;24.10;;;3.58;;
59830;SDS011;45711;50.108;13.712;2023-05-10T12:14:21;5.78;;;2.55;;
59830;SDS011;45711;50.108;13.712;2023-05-10T12:16:48;10.18;;;3.15;;
59830;SDS011;45711;50.108;13.712;2023-05-10T12:19:21;10.50;;;3.55;;
59830;SDS011;45711;50.108;13.712;2023-05-10T12:21:46;9.75;;;2.85;;
59830;SDS011;45711;50.108;13.712;2023-05-10T12:24:12;10.88;;;3.20;;
59830;SDS011;45711;50.108;13.712;2023-05-10T12:26:41;10.48;;;3.22;;
59830;SDS011;45711;50.108;13.712;2023-05-10T12:29:13;8.98;;;2.90;;
59830;SDS011;45711;50.108;13.712;2023-05-10T12:34:24;7.38;;;3.22;;
59830;SDS011;45711;50.108;13.712;2023-05-10T12:36:51;10.18;;;3.97;;
59830;SDS011;45711;50.108;13.712;2023-05-10T12:39:17;5.78;;;3.08;;
59830;SDS011;45711;50.108;13.712;2023-05-10T12:41:43;4.00;;;2.50;;
59830;SDS011;45711;50.108;13.712;2023-05-10T12:44:08;4.40;;;3.20;;
59830;SDS011;45711;50.108;13.712;2023-05-10T12:46:34;7.13;;;3.35;;
59830;SDS011;45711;50.108;13.712;2023-05-10T12:49:01;7.40;;;3.20;;
59830;SDS011;45711;50.108;13.712;2023-05-10T12:51:26;6.57;;;2.97;;
59830;SDS011;45711;50.108;13.712;2023-05-10T12:53:52;4.45;;;2.63;;
59830;SDS011;45711;50.108;13.712;2023-05-10T12:56:18;4.72;;;3.45;;
59830;SDS011;45711;50.108;13.712;2023-05-10T12:58:43;4.45;;;3.00;;
59830;SDS011;45711;50.108;13.712;2023-05-10T13:01:13;8.32;;;3.10;;
59830;SDS011;45711;50.108;13.712;2023-05-10T13:03:39;5.57;;;3.10;;
59830;SDS011;45711;50.108;13.712;2023-05-10T13:06:06;5.75;;;3.20;;
59830;SDS011;45711;50.108;13.712;2023-05-10T13:08:32;7.07;;;3.03;;
59830;SDS011;45711;50.108;13.712;2023-05-10T13:10:58;5.03;;;2.78;;
59830;SDS011;45711;50.108;13.712;2023-05-10T13:13:24;3.95;;;3.08;;
59830;SDS011;45711;50.108;13.712;2023-05-10T13:15:50;10.50;;;4.13;;
59830;SDS011;45711;50.108;13.712;2023-05-10T13:18:15;8.50;;;4.47;;
59830;SDS011;45711;50.108;13.712;2023-05-10T13:20:41;41.78;;;4.07;;
59830;SDS011;45711;50.108;13.712;2023-05-10T13:23:10;6.57;;;3.65;;
59830;SDS011;45711;50.108;13.712;2023-05-10T13:25:36;5.60;;;3.67;;
59830;SDS011;45711;50.108;13.712;2023-05-10T13:28:02;5.50;;;3.35;;
59830;SDS011;45711;50.108;13.712;2023-05-10T13:30:30;7.32;;;3.88;;
59830;SDS011;45711;50.108;13.712;2023-05-10T13:32:58;8.75;;;3.17;;
59830;SDS011;45711;50.108;13.712;2023-05-10T13:35:24;7.10;;;3.58;;
59830;SDS011;45711;50.108;13.712;2023-05-10T13:37:50;3.97;;;2.78;;
59830;SDS011;45711;50.108;13.712;2023-05-10T13:40:17;5.82;;;4.55;;
59830;SDS011;45711;50.108;13.712;2023-05-10T13:42:43;6.82;;;3.72;;
59830;SDS011;45711;50.108;13.712;2023-05-10T13:45:09;6.95;;;3.53;;
59830;SDS011;45711;50.108;13.712;2023-05-10T13:47:36;5.47;;;3.20;;
59830;SDS011;45711;50.108;13.712;2023-05-10T13:50:03;6.28;;;3.90;;
59830;SDS011;45711;50.108;13.712;2023-05-10T13:52:29;6.40;;;3.92;;
59830;SDS011;45711;50.108;13.712;2023-05-10T13:54:55;7.43;;;3.78;;
59830;SDS011;45711;50.108;13.712;2023-05-10T13:57:22;12.15;;;4.60;;
59830;SDS011;45711;50.108;13.712;2023-05-10T13:59:48;7.57;;;4.15;;
59830;SDS011;45711;50.108;13.712;2023-05-10T14:02:17;6.82;;;4.18;;
59830;SDS011;45711;50.108;13.712;2023-05-10T14:04:43;5.43;;;3.08;;
59830;SDS011;45711;50.108;13.712;2023-05-10T14:07:08;3.80;;;3.03;;
59830;SDS011;45711;50.108;13.712;2023-05-10T14:09:34;8.40;;;3.20;;
59830;SDS011;45711;50.108;13.712;2023-05-10T14:11:59;12.35;;;4.22;;
59830;SDS011;45711;50.108;13.712;2023-05-10T14:14:26;7.40;;;3.65;;
59830;SDS011;45711;50.108;13.712;2023-05-10T14:16:54;5.10;;;3.03;;
59830;SDS011;45711;50.108;13.712;2023-05-10T14:19:19;6.03;;;3.45;;
59830;SDS011;45711;50.108;13.712;2023-05-10T14:21:45;11.15;;;4.22;;
59830;SDS011;45711;50.108;13.712;2023-05-10T14:24:11;7.50;;;4.63;;
59830;SDS011;45711;50.108;13.712;2023-05-10T14:26:39;6.75;;;3.25;;
59830;SDS011;45711;50.108;13.712;2023-05-10T14:29:04;5.95;;;3.45;;
59830;SDS011;45711;50.108;13.712;2023-05-10T14:31:33;11.45;;;3.53;;
59830;SDS011;45711;50.108;13.712;2023-05-10T14:33:59;9.38;;;4.30;;
59830;SDS011;45711;50.108;13.712;2023-05-10T14:36:26;6.47;;;3.97;;
59830;SDS011;45711;50.108;13.712;2023-05-10T14:38:52;11.32;;;3.55;;